createdAt,value
2022-08-17T00:00:43.173Z,13.30
2022-08-17T00:03:23.265Z,12.70
2022-08-17T00:06:01.348Z,10.50
2022-08-17T00:08:34.127Z,9.80
2022-08-17T00:11:05.919Z,9.80
2022-08-17T00:13:38.540Z,11.00
2022-08-17T00:16:11.713Z,12.20
2022-08-17T00:19:06.139Z,10.00
2022-08-17T00:22:29.866Z,10.40
2022-08-17T00:24:18.368Z,12.90
2022-08-17T00:26:46.762Z,11.30
2022-08-17T00:29:19.717Z,10.00
2022-08-17T00:31:49.385Z,12.10
2022-08-17T00:34:17.604Z,11.30
2022-08-17T00:36:45.881Z,12.00
2022-08-17T00:39:14.054Z,13.90
2022-08-17T00:41:42.350Z,11.70
2022-08-17T00:44:11.809Z,13.00
2022-08-17T00:46:42.432Z,13.20
2022-08-17T00:49:11.966Z,13.30
2022-08-17T00:52:14.918Z,12.80
2022-08-17T00:54:47.621Z,12.50
2022-08-17T00:57:17.996Z,11.90
2022-08-17T01:00:03.015Z,11.60
2022-08-17T01:02:42.680Z,10.90
2022-08-17T01:05:25.679Z,11.70
2022-08-17T01:07:53.759Z,10.20
2022-08-17T01:10:58.797Z,13.00
2022-08-17T01:13:28.615Z,13.10
2022-08-17T01:16:18.613Z,10.90
2022-08-17T01:18:50.255Z,11.90
2022-08-17T01:21:32.782Z,13.30
2022-08-17T01:24:02.610Z,12.10
2022-08-17T01:26:32.622Z,13.50
2022-08-17T01:29:02.292Z,12.20
2022-08-17T01:31:35.886Z,11.80
2022-08-17T01:34:11.367Z,10.20
2022-08-17T01:36:43.807Z,10.60
2022-08-17T01:39:49.667Z,13.40
2022-08-17T01:42:47.223Z,10.70
2022-08-17T01:45:23.682Z,11.90
2022-08-17T01:47:55.334Z,12.70
2022-08-17T01:50:27.639Z,12.30
2022-08-17T01:53:32.200Z,11.90
2022-08-17T01:56:09.589Z,15.90
2022-08-17T01:58:39.285Z,11.80
2022-08-17T02:01:08.564Z,12.50
2022-08-17T02:03:38.071Z,18.40
2022-08-17T02:06:06.511Z,14.40
2022-08-17T02:09:01.577Z,14.70
2022-08-17T02:11:37.276Z,16.70
2022-08-17T02:14:10.307Z,13.50
2022-08-17T02:16:41.920Z,12.90
2022-08-17T02:19:15.294Z,13.80
2022-08-17T02:21:47.369Z,16.90
2022-08-17T02:24:58.655Z,15.10
2022-08-17T02:27:14.503Z,17.00
2022-08-17T02:29:42.277Z,17.20
2022-08-17T02:32:28.356Z,15.70
2022-08-17T02:34:57.908Z,16.00
2022-08-17T02:37:27.426Z,17.40
2022-08-17T02:39:59.105Z,17.30
2022-08-17T02:42:39.297Z,14.40
2022-08-17T02:45:12.608Z,15.40
2022-08-17T02:47:41.078Z,12.60
2022-08-17T02:50:12.346Z,12.40
2022-08-17T02:52:44.170Z,15.10
2022-08-17T02:55:20.472Z,15.40
2022-08-17T02:57:49.181Z,17.00
2022-08-17T03:00:33.553Z,12.30
2022-08-17T03:03:09.350Z,12.20
2022-08-17T03:05:42.322Z,12.70
2022-08-17T03:08:18.029Z,15.20
2022-08-17T03:11:19.203Z,16.50
2022-08-17T03:16:34.306Z,12.70
2022-08-17T03:19:06.108Z,11.10
2022-08-17T03:21:34.733Z,12.30
2022-08-17T03:26:37.359Z,12.50
2022-08-17T03:29:05.722Z,11.10
2022-08-17T03:31:34.413Z,12.00
2022-08-17T03:34:39.137Z,13.40
2022-08-17T03:37:09.739Z,12.00
2022-08-17T03:40:59.504Z,13.50
2022-08-17T03:43:32.839Z,16.80
2022-08-17T03:46:28.248Z,13.20
2022-08-17T03:49:24.958Z,12.70
2022-08-17T03:52:14.116Z,14.30
2022-08-17T03:55:02.600Z,15.40
2022-08-17T03:57:33.086Z,14.40
2022-08-17T04:05:10.809Z,15.90
2022-08-17T04:07:58.392Z,13.10
2022-08-17T04:10:33.279Z,19.90
2022-08-17T04:29:24.802Z,34.90
2022-08-17T04:31:54.463Z,20.60
2022-08-17T04:34:33.559Z,16.30
2022-08-17T04:37:07.114Z,17.60
2022-08-17T04:44:37.125Z,14.70
2022-08-17T04:51:51.036Z,16.20
2022-08-17T04:54:38.182Z,18.80
2022-08-17T04:57:06.699Z,18.90
2022-08-17T04:59:35.389Z,21.10
2022-08-17T05:02:04.415Z,15.40
2022-08-17T05:04:40.659Z,18.80
2022-08-17T05:07:10.276Z,19.60
2022-08-17T05:09:38.511Z,16.20
2022-08-17T05:12:11.275Z,17.80
2022-08-17T05:14:39.423Z,16.50
2022-08-17T05:17:11.002Z,14.20
2022-08-17T05:19:39.320Z,14.10
2022-08-17T05:22:07.000Z,12.90
2022-08-17T05:24:42.756Z,13.90
2022-08-17T05:27:14.352Z,13.60
2022-08-17T05:29:46.941Z,15.10
2022-08-17T05:32:39.055Z,13.60
2022-08-17T05:35:07.151Z,16.20
2022-08-17T05:37:35.007Z,17.60
2022-08-17T05:40:02.757Z,19.70
2022-08-17T05:42:30.713Z,15.20
2022-08-17T05:45:05.907Z,14.40
2022-08-17T05:47:37.745Z,13.00
2022-08-17T05:50:10.044Z,13.50
2022-08-17T05:53:10.362Z,13.10
2022-08-17T05:56:30.221Z,12.70
2022-08-17T05:59:04.840Z,12.30
2022-08-17T06:01:49.979Z,12.30
2022-08-17T06:04:32.329Z,13.50
2022-08-17T06:07:39.163Z,15.40
2022-08-17T06:10:18.045Z,13.30
2022-08-17T06:13:36.766Z,11.70
2022-08-17T06:16:33.050Z,13.10
2022-08-17T06:19:38.753Z,9.80
2022-08-17T06:22:08.551Z,9.50
2022-08-17T06:24:56.487Z,10.20
2022-08-17T06:27:40.618Z,11.40
2022-08-17T06:30:14.418Z,12.40
2022-08-17T06:32:45.130Z,12.80
2022-08-17T06:35:28.914Z,10.50
2022-08-17T06:38:37.144Z,11.90
2022-08-17T06:41:23.786Z,11.50
2022-08-17T06:44:42.207Z,21.40
2022-08-17T06:47:29.277Z,10.70
2022-08-17T06:50:36.616Z,9.10
2022-08-17T06:53:37.868Z,14.20
2022-08-17T06:56:11.284Z,9.50
2022-08-17T06:58:42.941Z,12.70
2022-08-17T07:01:30.743Z,7.80
2022-08-17T07:04:13.185Z,11.00
2022-08-17T07:07:27.500Z,9.80
2022-08-17T07:09:58.513Z,10.10
2022-08-17T07:12:37.067Z,7.80
2022-08-17T07:15:13.442Z,10.50
2022-08-17T07:17:47.845Z,11.90
2022-08-17T07:20:25.206Z,8.40
2022-08-17T07:23:04.210Z,10.50
2022-08-17T07:25:31.809Z,8.80
2022-08-17T07:28:06.861Z,10.50
2022-08-17T07:30:52.708Z,7.20
2022-08-17T07:33:29.279Z,11.70
2022-08-17T07:35:57.843Z,8.10
2022-08-17T07:38:34.971Z,9.20
2022-08-17T07:41:07.981Z,8.40
2022-08-17T07:43:42.113Z,10.00
2022-08-17T07:46:54.848Z,11.70
2022-08-17T07:49:31.698Z,7.90
2022-08-17T07:52:47.456Z,10.50
2022-08-17T07:54:59.430Z,8.20
2022-08-17T07:57:35.739Z,7.20
2022-08-17T08:00:31.832Z,9.80
2022-08-17T08:03:22.662Z,8.10
2022-08-17T08:06:01.484Z,12.20
2022-08-17T08:08:41.800Z,11.70
2022-08-17T08:11:14.973Z,13.20
2022-08-17T08:13:45.067Z,10.40
2022-08-17T08:16:23.804Z,13.30
2022-08-17T08:18:59.077Z,10.10
2022-08-17T08:21:51.724Z,15.10
2022-08-17T08:24:59.844Z,12.90
2022-08-17T08:27:43.483Z,9.90
2022-08-17T08:30:21.698Z,11.40
2022-08-17T08:33:09.786Z,10.40
2022-08-17T08:35:53.245Z,10.10
2022-08-17T08:38:34.295Z,11.70
2022-08-17T08:44:03.986Z,16.10
2022-08-17T08:46:51.053Z,16.90
2022-08-17T08:50:05.730Z,11.30
2022-08-17T08:52:49.539Z,12.90
2022-08-17T08:55:59.873Z,16.70
2022-08-17T08:58:50.018Z,11.40
2022-08-17T09:01:57.072Z,13.50
2022-08-17T09:05:12.775Z,10.70
2022-08-17T09:08:03.584Z,10.90
2022-08-17T09:10:51.951Z,12.70
2022-08-17T09:13:33.010Z,11.50
2022-08-17T09:16:14.906Z,10.50
2022-08-17T09:19:02.178Z,11.70
2022-08-17T09:21:55.046Z,11.00
2022-08-17T09:24:39.717Z,10.70
2022-08-17T09:27:28.286Z,11.20
2022-08-17T09:30:08.532Z,11.20
2022-08-17T09:32:51.622Z,13.20
2022-08-17T09:35:41.103Z,13.40
2022-08-17T09:38:19.318Z,11.60
2022-08-17T09:41:20.420Z,11.80
2022-08-17T09:47:15.730Z,12.70
2022-08-17T09:50:09.147Z,9.60
2022-08-17T09:52:37.046Z,14.20
2022-08-17T09:55:09.735Z,8.70
2022-08-17T09:57:57.318Z,9.10
2022-08-17T10:00:34.858Z,9.30
2022-08-17T10:03:16.094Z,9.90
2022-08-17T10:06:14.307Z,10.10
2022-08-17T10:09:07.707Z,11.30
2022-08-17T10:12:36.643Z,10.00
2022-08-17T10:15:36.198Z,12.10
2022-08-17T10:18:33.095Z,12.10
2022-08-17T10:21:31.968Z,9.50
2022-08-17T10:24:20.937Z,13.50
2022-08-17T10:26:56.391Z,8.70
2022-08-17T10:29:47.269Z,9.20
2022-08-17T10:33:07.118Z,8.80
2022-08-17T10:35:53.013Z,10.60
2022-08-17T10:38:46.140Z,11.30
2022-08-17T10:41:43.022Z,13.10
2022-08-17T10:44:45.356Z,8.80
2022-08-17T10:47:16.886Z,14.80
2022-08-17T10:49:53.229Z,11.20
2022-08-17T10:52:21.632Z,9.10
2022-08-17T10:54:58.336Z,9.10
2022-08-17T10:57:29.541Z,14.10
2022-08-17T11:00:28.051Z,8.50
2022-08-17T11:02:57.564Z,9.00
2022-08-17T11:05:49.848Z,10.70
2022-08-17T11:08:46.129Z,10.50
2022-08-17T11:11:39.192Z,9.30
2022-08-17T11:14:16.669Z,10.20
2022-08-17T11:17:26.321Z,12.10
2022-08-17T11:20:49.077Z,9.80
2022-08-17T11:23:37.599Z,10.30
2022-08-17T11:26:21.890Z,11.40
2022-08-17T11:28:55.764Z,9.20
2022-08-17T11:31:47.509Z,8.50
2022-08-17T11:34:26.599Z,10.10
2022-08-17T11:37:18.750Z,10.10
2022-08-17T11:40:38.603Z,10.10
2022-08-17T11:44:03.518Z,11.40
2022-08-17T11:47:09.117Z,8.70
2022-08-17T11:50:28.705Z,11.20
2022-08-17T11:52:56.520Z,11.00
2022-08-17T11:55:38.198Z,8.40
2022-08-17T11:58:29.562Z,7.90
2022-08-17T12:01:06.933Z,10.00
2022-08-17T12:03:34.542Z,8.40
2022-08-17T12:06:30.338Z,9.50
2022-08-17T12:09:20.996Z,12.40
2022-08-17T12:12:11.927Z,11.40
2022-08-17T12:17:40.555Z,10.20
2022-08-17T12:20:23.722Z,17.70
2022-08-17T12:23:17.006Z,7.20
2022-08-17T12:26:20.078Z,14.30
2022-08-17T12:28:51.098Z,15.50
2022-08-17T12:31:35.468Z,8.40
2022-08-17T12:34:05.195Z,7.70
2022-08-17T12:36:34.474Z,11.30
2022-08-17T12:39:14.155Z,8.00
2022-08-17T12:41:46.540Z,9.50
2022-08-17T12:44:20.743Z,10.80
2022-08-17T12:47:02.891Z,14.20
2022-08-17T12:49:39.115Z,12.50
2022-08-17T12:52:28.958Z,7.60
2022-08-17T12:55:02.767Z,8.90
2022-08-17T12:57:40.260Z,10.10
2022-08-17T13:00:10.415Z,9.20
2022-08-17T13:02:42.063Z,9.90
2022-08-17T13:05:35.595Z,10.90
2022-08-17T13:08:30.565Z,9.40
2022-08-17T13:11:09.886Z,7.10
2022-08-17T13:13:44.459Z,6.80
2022-08-17T13:16:11.999Z,7.60
2022-08-17T13:18:50.196Z,5.80
2022-08-17T13:21:23.195Z,5.70
2022-08-17T13:24:11.724Z,4.60
2022-08-17T13:26:47.536Z,5.80
2022-08-17T13:29:32.961Z,7.30
2022-08-17T13:32:12.950Z,8.60
2022-08-17T13:35:12.362Z,7.30
2022-08-17T13:37:36.991Z,6.60
2022-08-17T13:40:10.502Z,6.30
2022-08-17T13:42:50.332Z,6.40
2022-08-17T13:45:39.201Z,7.40
2022-08-17T13:48:15.949Z,12.30
2022-08-17T13:50:55.624Z,6.10
2022-08-17T13:53:36.086Z,6.00
2022-08-17T13:56:37.370Z,7.40
2022-08-17T13:59:14.010Z,5.30
2022-08-17T14:01:52.571Z,5.80
2022-08-17T14:05:13.232Z,6.80
2022-08-17T14:07:41.735Z,6.80
2022-08-17T14:10:16.907Z,6.00
2022-08-17T14:12:52.068Z,7.80
2022-08-17T14:15:24.409Z,6.40
2022-08-17T14:18:12.395Z,6.70
2022-08-17T14:20:44.291Z,9.30
2022-08-17T14:23:12.985Z,5.90
2022-08-17T14:25:40.842Z,9.20
2022-08-17T14:28:08.556Z,6.90
2022-08-17T14:30:37.289Z,6.30
2022-08-17T14:33:05.598Z,5.60
2022-08-17T14:35:36.144Z,6.70
2022-08-17T14:38:03.579Z,8.80
2022-08-17T14:40:34.797Z,7.40
2022-08-17T14:43:12.342Z,7.20
2022-08-17T14:45:41.102Z,6.70
2022-08-17T14:48:08.954Z,7.70
2022-08-17T14:50:43.906Z,6.40
2022-08-17T14:53:15.648Z,6.30
2022-08-17T14:55:45.359Z,7.60
2022-08-17T14:58:14.643Z,7.90
2022-08-17T15:00:43.170Z,7.80
2022-08-17T15:03:11.337Z,8.30
2022-08-17T15:05:39.602Z,5.50
2022-08-17T15:08:07.385Z,7.30
2022-08-17T15:10:35.572Z,8.50
2022-08-17T15:13:03.511Z,8.50
2022-08-17T15:15:31.309Z,6.30
2022-08-17T15:17:59.347Z,8.40
2022-08-17T15:20:29.590Z,8.40
2022-08-17T15:22:58.487Z,15.00
2022-08-17T15:25:28.558Z,6.00
2022-08-17T15:27:56.335Z,9.60
2022-08-17T15:30:26.032Z,7.30
2022-08-17T15:32:55.198Z,7.50
2022-08-17T15:35:29.872Z,6.70
2022-08-17T15:38:10.770Z,7.50
2022-08-17T15:40:44.207Z,10.60
2022-08-17T15:43:17.354Z,9.20
2022-08-17T15:45:54.855Z,17.00
2022-08-17T15:48:41.263Z,15.10
2022-08-17T15:51:15.822Z,10.80
2022-08-17T15:54:18.788Z,8.80
2022-08-17T15:56:50.650Z,11.70
2022-08-17T15:59:18.953Z,13.00
2022-08-17T16:03:13.091Z,9.50
2022-08-17T16:04:34.600Z,8.50
2022-08-17T16:07:02.811Z,7.50
2022-08-17T16:09:30.552Z,8.40
2022-08-17T16:11:58.919Z,26.10
2022-08-17T16:14:33.530Z,21.20
2022-08-17T16:17:04.709Z,14.00
2022-08-17T16:19:34.060Z,10.30
2022-08-17T16:22:02.969Z,10.40
2022-08-17T16:24:31.372Z,13.00
2022-08-17T16:26:59.960Z,10.60
2022-08-17T16:29:28.338Z,10.10
2022-08-17T16:31:57.440Z,12.00
2022-08-17T16:34:25.227Z,10.30
2022-08-17T16:36:56.516Z,10.00
2022-08-17T16:39:28.471Z,9.80
2022-08-17T16:41:59.854Z,10.00
2022-08-17T16:44:30.201Z,9.30
2022-08-17T16:47:01.117Z,11.00
2022-08-17T16:52:09.301Z,10.00
2022-08-17T16:54:43.242Z,9.80
2022-08-17T16:57:12.938Z,11.40
2022-08-17T16:59:44.954Z,11.60
2022-08-17T17:02:27.664Z,10.70
2022-08-17T17:05:44.849Z,14.90
2022-08-17T17:08:28.078Z,17.30
2022-08-17T17:10:58.875Z,18.80
2022-08-17T17:14:01.847Z,20.40
2022-08-17T17:19:19.676Z,19.80
2022-08-17T17:22:15.843Z,18.70
2022-08-17T17:25:04.737Z,19.40
2022-08-17T17:28:01.979Z,20.10
2022-08-17T17:30:47.460Z,22.40
2022-08-17T17:33:23.019Z,25.30
2022-08-17T17:35:59.456Z,21.20
2022-08-17T17:38:34.579Z,23.70
2022-08-17T17:41:09.022Z,21.70
2022-08-17T17:43:39.777Z,22.20
2022-08-17T17:46:27.104Z,21.00
2022-08-17T17:48:59.901Z,24.10
2022-08-17T17:52:07.980Z,21.60
2022-08-17T17:55:25.344Z,25.70
2022-08-17T17:58:29.990Z,23.00
2022-08-17T18:01:28.739Z,23.80
2022-08-17T18:04:29.833Z,25.60
2022-08-17T18:07:41.177Z,26.20
2022-08-17T18:10:31.779Z,24.80
2022-08-17T18:13:27.774Z,24.30
2022-08-17T18:15:56.012Z,27.60
2022-08-17T18:18:37.696Z,27.20
2022-08-17T18:21:16.173Z,24.00
2022-08-17T18:24:00.715Z,24.80
2022-08-17T18:26:55.411Z,26.40
2022-08-17T18:29:35.768Z,24.70
2022-08-17T18:32:28.174Z,24.50
2022-08-17T18:35:01.088Z,24.30
2022-08-17T18:37:48.596Z,27.00
2022-08-17T18:40:16.224Z,27.60
2022-08-17T18:43:06.355Z,24.10
2022-08-17T18:45:45.591Z,27.10
2022-08-17T18:48:37.713Z,26.90
2022-08-17T18:51:43.186Z,28.90
2022-08-17T18:54:23.461Z,28.30
2022-08-17T18:56:57.361Z,29.10
2022-08-17T18:59:31.365Z,29.40
2022-08-17T19:02:20.594Z,29.80
2022-08-17T19:05:12.934Z,29.00
2022-08-17T19:07:45.419Z,30.60
2022-08-17T19:10:25.047Z,28.30
2022-08-17T19:13:12.690Z,28.80
2022-08-17T19:16:12.119Z,32.40
2022-08-17T19:18:41.144Z,26.50
2022-08-17T19:21:23.117Z,27.30
2022-08-17T19:24:09.350Z,31.40
2022-08-17T19:26:54.198Z,30.00
2022-08-17T19:29:51.545Z,30.50
2022-08-17T19:32:26.765Z,28.40
2022-08-17T19:34:55.616Z,27.30
2022-08-17T19:37:56.142Z,31.30
2022-08-17T19:40:51.691Z,30.80
2022-08-17T19:43:35.887Z,33.80
2022-08-17T19:46:50.066Z,28.80
2022-08-17T19:49:54.588Z,30.40
2022-08-17T19:52:29.592Z,32.80
2022-08-17T19:55:21.614Z,32.90
2022-08-17T19:57:58.688Z,39.90
2022-08-17T20:00:26.929Z,34.90
2022-08-17T20:03:06.144Z,34.70
2022-08-17T20:06:10.856Z,37.00
2022-08-17T20:08:41.449Z,36.30
2022-08-17T20:11:21.133Z,35.20
2022-08-17T20:14:21.827Z,36.70
2022-08-17T20:17:06.202Z,36.50
2022-08-17T20:19:57.949Z,35.60
2022-08-17T20:22:51.758Z,36.80
2022-08-17T20:25:31.646Z,38.70
2022-08-17T20:28:34.821Z,33.00
2022-08-17T20:31:39.664Z,36.80
2022-08-17T20:34:30.870Z,36.80
2022-08-17T20:37:15.302Z,34.80
2022-08-17T20:39:46.701Z,35.30
2022-08-17T20:42:20.483Z,36.10
2022-08-17T20:44:59.150Z,35.10
2022-08-17T20:47:36.652Z,32.10
2022-08-17T20:50:22.769Z,33.80
2022-08-17T20:52:57.617Z,32.10
2022-08-17T20:55:51.398Z,34.30
2022-08-17T20:58:30.620Z,30.90
2022-08-17T21:01:00.938Z,34.40
2022-08-17T21:03:50.444Z,35.40
2022-08-17T21:06:19.797Z,32.40
2022-08-17T21:12:03.910Z,33.20
2022-08-17T21:14:57.077Z,36.70
2022-08-17T21:18:08.013Z,33.80
2022-08-17T21:21:23.723Z,36.40
2022-08-17T21:24:32.649Z,32.70
2022-08-17T21:27:34.626Z,35.90
2022-08-17T21:30:02.045Z,37.50
2022-08-17T21:32:37.145Z,35.10
2022-08-17T21:35:07.059Z,34.10
2022-08-17T21:37:46.293Z,36.80
2022-08-17T21:40:17.773Z,41.60
2022-08-17T21:43:00.482Z,38.80
2022-08-17T21:45:35.142Z,40.50
2022-08-17T21:48:19.243Z,36.80
2022-08-17T21:51:28.516Z,42.10
2022-08-17T21:54:01.765Z,40.60
2022-08-17T21:56:38.800Z,42.10
2022-08-17T21:59:15.997Z,40.50
2022-08-17T22:01:51.171Z,41.60
2022-08-17T22:04:34.218Z,42.90
2022-08-17T22:07:10.697Z,45.30
2022-08-17T22:09:49.630Z,43.60
2022-08-17T22:12:20.825Z,46.40
2022-08-17T22:15:01.229Z,47.50
2022-08-17T22:17:35.001Z,44.20
2022-08-17T22:20:08.920Z,45.60
2022-08-17T22:23:24.805Z,44.80
2022-08-17T22:25:59.679Z,47.20
2022-08-17T22:28:39.125Z,48.40
2022-08-17T22:31:10.076Z,46.70
2022-08-17T22:33:50.150Z,47.30
2022-08-17T22:36:29.684Z,43.50
2022-08-17T22:39:04.002Z,47.10
2022-08-17T22:41:54.026Z,48.50
2022-08-17T22:44:31.960Z,43.50
2022-08-17T22:47:14.516Z,45.10
2022-08-17T22:49:58.900Z,46.90
2022-08-17T22:52:34.168Z,45.30
2022-08-17T22:55:36.085Z,48.40
2022-08-17T22:58:30.460Z,46.40
2022-08-17T23:01:25.409Z,48.10
2022-08-17T23:04:04.178Z,48.30
2022-08-17T23:06:36.652Z,46.90
2022-08-17T23:09:06.524Z,50.70
2022-08-17T23:11:50.331Z,48.90
2022-08-17T23:14:22.042Z,46.00
2022-08-17T23:16:50.871Z,40.60
2022-08-17T23:19:20.681Z,44.60
2022-08-17T23:21:50.011Z,45.10
2022-08-17T23:24:23.275Z,42.00
2022-08-17T23:26:51.081Z,45.40
2022-08-17T23:29:21.211Z,48.10
2022-08-17T23:31:50.598Z,44.50
2022-08-17T23:34:18.615Z,43.50
2022-08-17T23:36:50.261Z,43.80
2022-08-17T23:39:27.695Z,46.60
2022-08-17T23:41:58.457Z,40.10
2022-08-17T23:44:28.381Z,45.10
2022-08-17T23:46:57.027Z,41.20
2022-08-17T23:49:24.770Z,46.40
2022-08-17T23:51:54.297Z,44.00
2022-08-17T23:54:34.209Z,43.10
2022-08-17T23:57:04.281Z,42.00
2022-08-17T23:59:33.454Z,42.70
